sensor_id;sensor_type;location;lat;lon;timestamp;P1;durP1;ratioP1;P2;durP2;ratioP2
8857;SDS011;4465;50.904;4.696;2022-07-23T00:00:05;30.35;;;15.38;;
8857;SDS011;4465;50.904;4.696;2022-07-23T00:04:59;28.92;;;15.85;;
8857;SDS011;4465;50.904;4.696;2022-07-23T00:07:25;28.10;;;16.08;;
8857;SDS011;4465;50.904;4.696;2022-07-23T00:09:51;27.43;;;14.93;;
8857;SDS011;4465;50.904;4.696;2022-07-23T00:12:17;21.75;;;14.45;;
8857;SDS011;4465;50.904;4.696;2022-07-23T00:14:43;27.92;;;15.27;;
8857;SDS011;4465;50.904;4.696;2022-07-23T00:17:10;28.45;;;16.35;;
8857;SDS011;4465;50.904;4.696;2022-07-23T00:19:38;32.15;;;16.63;;
8857;SDS011;4465;50.904;4.696;2022-07-23T00:22:05;28.20;;;16.08;;
8857;SDS011;4465;50.904;4.696;2022-07-23T00:24:31;26.42;;;16.83;;
8857;SDS011;4465;50.904;4.696;2022-07-23T00:29:25;27.30;;;16.70;;
8857;SDS011;4465;50.904;4.696;2022-07-23T00:31:53;31.58;;;17.13;;
8857;SDS011;4465;50.904;4.696;2022-07-23T00:34:19;32.70;;;17.98;;
8857;SDS011;4465;50.904;4.696;2022-07-23T00:36:46;32.35;;;17.95;;
8857;SDS011;4465;50.904;4.696;2022-07-23T00:39:12;32.33;;;17.42;;
8857;SDS011;4465;50.904;4.696;2022-07-23T00:41:40;26.90;;;16.63;;
8857;SDS011;4465;50.904;4.696;2022-07-23T00:44:23;32.72;;;18.00;;
8857;SDS011;4465;50.904;4.696;2022-07-23T00:47:00;34.85;;;17.77;;
8857;SDS011;4465;50.904;4.696;2022-07-23T00:49:30;36.05;;;18.77;;
8857;SDS011;4465;50.904;4.696;2022-07-23T00:51:57;34.63;;;18.10;;
8857;SDS011;4465;50.904;4.696;2022-07-23T00:54:26;31.45;;;17.75;;
8857;SDS011;4465;50.904;4.696;2022-07-23T00:56:53;32.85;;;18.40;;
8857;SDS011;4465;50.904;4.696;2022-07-23T00:59:19;32.60;;;17.65;;
8857;SDS011;4465;50.904;4.696;2022-07-23T01:01:48;35.65;;;18.33;;
8857;SDS011;4465;50.904;4.696;2022-07-23T01:04:14;33.10;;;19.23;;
8857;SDS011;4465;50.904;4.696;2022-07-23T01:06:41;28.88;;;17.55;;
8857;SDS011;4465;50.904;4.696;2022-07-23T01:09:08;42.25;;;18.58;;
8857;SDS011;4465;50.904;4.696;2022-07-23T01:11:37;29.42;;;17.35;;
8857;SDS011;4465;50.904;4.696;2022-07-23T01:16:40;32.03;;;18.70;;
8857;SDS011;4465;50.904;4.696;2022-07-23T01:19:10;35.25;;;18.48;;
8857;SDS011;4465;50.904;4.696;2022-07-23T01:21:38;31.60;;;17.95;;
8857;SDS011;4465;50.904;4.696;2022-07-23T01:24:14;34.42;;;17.75;;
8857;SDS011;4465;50.904;4.696;2022-07-23T01:29:09;28.50;;;16.58;;
8857;SDS011;4465;50.904;4.696;2022-07-23T01:31:36;27.92;;;17.50;;
8857;SDS011;4465;50.904;4.696;2022-07-23T01:34:02;30.20;;;18.17;;
8857;SDS011;4465;50.904;4.696;2022-07-23T01:36:29;29.52;;;17.83;;
8857;SDS011;4465;50.904;4.696;2022-07-23T01:38:55;27.17;;;17.00;;
8857;SDS011;4465;50.904;4.696;2022-07-23T01:41:22;34.53;;;18.80;;
8857;SDS011;4465;50.904;4.696;2022-07-23T01:43:48;34.05;;;17.95;;
8857;SDS011;4465;50.904;4.696;2022-07-23T01:46:14;35.42;;;19.05;;
8857;SDS011;4465;50.904;4.696;2022-07-23T01:48:42;31.50;;;18.80;;
8857;SDS011;4465;50.904;4.696;2022-07-23T01:51:08;39.80;;;19.83;;
8857;SDS011;4465;50.904;4.696;2022-07-23T01:53:35;34.25;;;19.75;;
8857;SDS011;4465;50.904;4.696;2022-07-23T01:56:01;39.42;;;20.85;;
8857;SDS011;4465;50.904;4.696;2022-07-23T01:58:28;39.70;;;21.88;;
8857;SDS011;4465;50.904;4.696;2022-07-23T02:00:55;37.72;;;20.52;;
8857;SDS011;4465;50.904;4.696;2022-07-23T02:03:21;35.92;;;20.88;;
8857;SDS011;4465;50.904;4.696;2022-07-23T02:05:48;37.35;;;20.25;;
8857;SDS011;4465;50.904;4.696;2022-07-23T02:08:14;38.05;;;20.55;;
8857;SDS011;4465;50.904;4.696;2022-07-23T02:10:41;41.17;;;21.25;;
8857;SDS011;4465;50.904;4.696;2022-07-23T02:13:11;34.25;;;21.30;;
8857;SDS011;4465;50.904;4.696;2022-07-23T02:15:37;31.77;;;20.67;;
8857;SDS011;4465;50.904;4.696;2022-07-23T02:18:05;33.85;;;20.65;;
8857;SDS011;4465;50.904;4.696;2022-07-23T02:20:31;35.80;;;19.38;;
8857;SDS011;4465;50.904;4.696;2022-07-23T02:23:00;35.72;;;21.00;;
8857;SDS011;4465;50.904;4.696;2022-07-23T02:25:26;35.53;;;20.58;;
8857;SDS011;4465;50.904;4.696;2022-07-23T02:27:52;41.90;;;21.40;;
8857;SDS011;4465;50.904;4.696;2022-07-23T02:30:18;43.40;;;23.40;;
8857;SDS011;4465;50.904;4.696;2022-07-23T02:32:44;45.80;;;22.08;;
8857;SDS011;4465;50.904;4.696;2022-07-23T02:35:12;40.83;;;21.85;;
8857;SDS011;4465;50.904;4.696;2022-07-23T02:37:39;39.90;;;21.70;;
8857;SDS011;4465;50.904;4.696;2022-07-23T02:40:05;40.10;;;22.00;;
8857;SDS011;4465;50.904;4.696;2022-07-23T02:42:31;38.80;;;23.23;;
8857;SDS011;4465;50.904;4.696;2022-07-23T02:44:57;42.45;;;23.70;;
8857;SDS011;4465;50.904;4.696;2022-07-23T02:47:23;49.00;;;23.75;;
8857;SDS011;4465;50.904;4.696;2022-07-23T02:49:52;38.85;;;21.30;;
8857;SDS011;4465;50.904;4.696;2022-07-23T02:52:18;38.05;;;22.98;;
8857;SDS011;4465;50.904;4.696;2022-07-23T02:54:43;37.63;;;23.02;;
8857;SDS011;4465;50.904;4.696;2022-07-23T02:57:18;51.78;;;22.25;;
8857;SDS011;4465;50.904;4.696;2022-07-23T02:59:44;43.28;;;22.50;;
8857;SDS011;4465;50.904;4.696;2022-07-23T03:02:10;40.90;;;22.42;;
8857;SDS011;4465;50.904;4.696;2022-07-23T03:04:36;43.35;;;21.90;;
8857;SDS011;4465;50.904;4.696;2022-07-23T03:07:03;41.25;;;22.55;;
8857;SDS011;4465;50.904;4.696;2022-07-23T03:09:29;37.45;;;21.35;;
8857;SDS011;4465;50.904;4.696;2022-07-23T03:11:55;37.70;;;20.42;;
8857;SDS011;4465;50.904;4.696;2022-07-23T03:14:21;42.47;;;21.90;;
8857;SDS011;4465;50.904;4.696;2022-07-23T03:16:47;37.30;;;21.75;;
8857;SDS011;4465;50.904;4.696;2022-07-23T03:19:15;39.58;;;23.17;;
8857;SDS011;4465;50.904;4.696;2022-07-23T03:21:41;38.40;;;21.33;;
8857;SDS011;4465;50.904;4.696;2022-07-23T03:24:08;44.53;;;22.30;;
8857;SDS011;4465;50.904;4.696;2022-07-23T03:26:35;43.95;;;22.33;;
8857;SDS011;4465;50.904;4.696;2022-07-23T03:29:01;39.60;;;22.13;;
8857;SDS011;4465;50.904;4.696;2022-07-23T03:31:29;49.95;;;23.55;;
8857;SDS011;4465;50.904;4.696;2022-07-23T03:36:22;45.65;;;22.42;;
8857;SDS011;4465;50.904;4.696;2022-07-23T03:38:48;43.05;;;22.00;;
8857;SDS011;4465;50.904;4.696;2022-07-23T03:41:19;38.80;;;22.02;;
8857;SDS011;4465;50.904;4.696;2022-07-23T03:43:48;35.90;;;21.13;;
8857;SDS011;4465;50.904;4.696;2022-07-23T03:46:14;40.67;;;21.92;;
8857;SDS011;4465;50.904;4.696;2022-07-23T03:48:40;38.47;;;22.23;;
8857;SDS011;4465;50.904;4.696;2022-07-23T03:51:06;42.28;;;22.20;;
8857;SDS011;4465;50.904;4.696;2022-07-23T03:53:33;40.65;;;21.65;;
8857;SDS011;4465;50.904;4.696;2022-07-23T03:56:03;41.33;;;23.33;;
8857;SDS011;4465;50.904;4.696;2022-07-23T03:58:29;39.28;;;20.77;;
8857;SDS011;4465;50.904;4.696;2022-07-23T04:00:58;38.53;;;20.98;;
8857;SDS011;4465;50.904;4.696;2022-07-23T04:03:29;42.25;;;22.23;;
8857;SDS011;4465;50.904;4.696;2022-07-23T04:05:55;34.72;;;19.25;;
8857;SDS011;4465;50.904;4.696;2022-07-23T04:08:21;38.63;;;22.30;;
8857;SDS011;4465;50.904;4.696;2022-07-23T04:10:50;45.58;;;22.73;;
8857;SDS011;4465;50.904;4.696;2022-07-23T04:13:17;39.88;;;22.30;;
8857;SDS011;4465;50.904;4.696;2022-07-23T04:15:45;38.45;;;21.65;;
8857;SDS011;4465;50.904;4.696;2022-07-23T04:18:11;40.25;;;22.02;;
8857;SDS011;4465;50.904;4.696;2022-07-23T04:20:43;38.92;;;22.45;;
8857;SDS011;4465;50.904;4.696;2022-07-23T04:23:09;43.58;;;23.52;;
8857;SDS011;4465;50.904;4.696;2022-07-23T04:25:35;47.00;;;23.05;;
8857;SDS011;4465;50.904;4.696;2022-07-23T04:28:01;43.58;;;22.80;;
8857;SDS011;4465;50.904;4.696;2022-07-23T04:30:27;34.95;;;21.42;;
8857;SDS011;4465;50.904;4.696;2022-07-23T04:32:54;41.40;;;22.33;;
8857;SDS011;4465;50.904;4.696;2022-07-23T04:35:22;39.33;;;22.30;;
8857;SDS011;4465;50.904;4.696;2022-07-23T04:37:48;39.40;;;21.40;;
8857;SDS011;4465;50.904;4.696;2022-07-23T04:40:14;36.25;;;20.85;;
8857;SDS011;4465;50.904;4.696;2022-07-23T04:42:40;39.88;;;21.23;;
8857;SDS011;4465;50.904;4.696;2022-07-23T04:45:08;35.72;;;20.90;;
8857;SDS011;4465;50.904;4.696;2022-07-23T04:47:36;37.70;;;19.95;;
8857;SDS011;4465;50.904;4.696;2022-07-23T04:50:04;41.55;;;19.95;;
8857;SDS011;4465;50.904;4.696;2022-07-23T04:52:31;35.45;;;20.35;;
8857;SDS011;4465;50.904;4.696;2022-07-23T04:54:59;38.20;;;20.27;;
8857;SDS011;4465;50.904;4.696;2022-07-23T04:57:25;36.42;;;21.85;;
8857;SDS011;4465;50.904;4.696;2022-07-23T04:59:53;44.72;;;22.73;;
8857;SDS011;4465;50.904;4.696;2022-07-23T05:02:19;36.17;;;21.67;;
8857;SDS011;4465;50.904;4.696;2022-07-23T05:04:45;40.28;;;22.08;;
8857;SDS011;4465;50.904;4.696;2022-07-23T05:07:11;42.72;;;21.65;;
8857;SDS011;4465;50.904;4.696;2022-07-23T05:09:37;39.67;;;21.60;;
8857;SDS011;4465;50.904;4.696;2022-07-23T05:12:03;39.10;;;22.17;;
8857;SDS011;4465;50.904;4.696;2022-07-23T05:14:29;42.13;;;21.52;;
8857;SDS011;4465;50.904;4.696;2022-07-23T05:16:55;37.78;;;23.15;;
8857;SDS011;4465;50.904;4.696;2022-07-23T05:19:22;34.90;;;20.83;;
8857;SDS011;4465;50.904;4.696;2022-07-23T05:21:50;33.53;;;20.38;;
8857;SDS011;4465;50.904;4.696;2022-07-23T05:24:18;36.85;;;21.60;;
8857;SDS011;4465;50.904;4.696;2022-07-23T05:26:47;38.33;;;21.65;;
8857;SDS011;4465;50.904;4.696;2022-07-23T05:29:13;40.42;;;22.25;;
8857;SDS011;4465;50.904;4.696;2022-07-23T05:31:39;41.40;;;22.52;;
8857;SDS011;4465;50.904;4.696;2022-07-23T05:34:05;36.78;;;23.05;;
8857;SDS011;4465;50.904;4.696;2022-07-23T05:36:31;37.83;;;22.00;;
8857;SDS011;4465;50.904;4.696;2022-07-23T05:38:57;39.72;;;23.08;;
8857;SDS011;4465;50.904;4.696;2022-07-23T05:41:25;42.55;;;22.02;;
8857;SDS011;4465;50.904;4.696;2022-07-23T05:43:52;37.72;;;23.10;;
8857;SDS011;4465;50.904;4.696;2022-07-23T05:46:18;36.15;;;22.40;;
8857;SDS011;4465;50.904;4.696;2022-07-23T05:48:44;40.30;;;23.00;;
8857;SDS011;4465;50.904;4.696;2022-07-23T05:51:24;43.97;;;23.25;;
8857;SDS011;4465;50.904;4.696;2022-07-23T05:53:50;35.58;;;23.15;;
8857;SDS011;4465;50.904;4.696;2022-07-23T05:56:19;38.33;;;21.67;;
8857;SDS011;4465;50.904;4.696;2022-07-23T05:58:46;39.03;;;22.35;;
8857;SDS011;4465;50.904;4.696;2022-07-23T06:01:12;38.63;;;21.88;;
8857;SDS011;4465;50.904;4.696;2022-07-23T06:03:40;35.20;;;20.92;;
8857;SDS011;4465;50.904;4.696;2022-07-23T06:06:06;29.92;;;20.20;;
8857;SDS011;4465;50.904;4.696;2022-07-23T06:08:33;28.48;;;19.25;;
8857;SDS011;4465;50.904;4.696;2022-07-23T06:10:59;35.63;;;19.65;;
8857;SDS011;4465;50.904;4.696;2022-07-23T06:13:25;34.63;;;20.98;;
8857;SDS011;4465;50.904;4.696;2022-07-23T06:15:51;32.70;;;19.95;;
8857;SDS011;4465;50.904;4.696;2022-07-23T06:18:17;38.42;;;19.42;;
8857;SDS011;4465;50.904;4.696;2022-07-23T06:20:43;28.42;;;18.45;;
8857;SDS011;4465;50.904;4.696;2022-07-23T06:23:09;29.38;;;18.27;;
8857;SDS011;4465;50.904;4.696;2022-07-23T06:25:35;27.45;;;18.23;;
8857;SDS011;4465;50.904;4.696;2022-07-23T06:28:03;28.98;;;18.17;;
8857;SDS011;4465;50.904;4.696;2022-07-23T06:30:29;27.63;;;17.73;;
8857;SDS011;4465;50.904;4.696;2022-07-23T06:32:57;24.98;;;17.08;;
8857;SDS011;4465;50.904;4.696;2022-07-23T06:35:23;26.15;;;17.60;;
8857;SDS011;4465;50.904;4.696;2022-07-23T06:37:55;30.17;;;17.88;;
8857;SDS011;4465;50.904;4.696;2022-07-23T06:40:22;29.85;;;16.40;;
8857;SDS011;4465;50.904;4.696;2022-07-23T06:42:48;25.52;;;15.20;;
8857;SDS011;4465;50.904;4.696;2022-07-23T06:45:14;28.17;;;17.75;;
8857;SDS011;4465;50.904;4.696;2022-07-23T06:47:40;26.90;;;17.58;;
8857;SDS011;4465;50.904;4.696;2022-07-23T06:50:07;24.73;;;16.52;;
8857;SDS011;4465;50.904;4.696;2022-07-23T06:52:33;27.95;;;16.50;;
8857;SDS011;4465;50.904;4.696;2022-07-23T06:54:59;27.52;;;16.05;;
8857;SDS011;4465;50.904;4.696;2022-07-23T06:57:25;26.70;;;16.60;;
8857;SDS011;4465;50.904;4.696;2022-07-23T06:59:52;27.15;;;16.67;;
8857;SDS011;4465;50.904;4.696;2022-07-23T07:02:20;26.75;;;15.65;;
8857;SDS011;4465;50.904;4.696;2022-07-23T07:04:46;24.15;;;16.05;;
8857;SDS011;4465;50.904;4.696;2022-07-23T07:07:13;26.73;;;15.43;;
8857;SDS011;4465;50.904;4.696;2022-07-23T07:09:39;23.40;;;15.48;;
8857;SDS011;4465;50.904;4.696;2022-07-23T07:12:05;27.20;;;15.20;;
8857;SDS011;4465;50.904;4.696;2022-07-23T07:14:32;25.63;;;16.27;;
8857;SDS011;4465;50.904;4.696;2022-07-23T07:16:58;25.75;;;15.55;;
8857;SDS011;4465;50.904;4.696;2022-07-23T07:19:25;25.42;;;15.52;;
8857;SDS011;4465;50.904;4.696;2022-07-23T07:21:51;24.20;;;15.15;;
8857;SDS011;4465;50.904;4.696;2022-07-23T07:24:17;24.10;;;15.20;;
8857;SDS011;4465;50.904;4.696;2022-07-23T07:26:43;22.77;;;14.50;;
8857;SDS011;4465;50.904;4.696;2022-07-23T07:29:10;25.02;;;15.45;;
8857;SDS011;4465;50.904;4.696;2022-07-23T07:31:36;21.85;;;13.90;;
8857;SDS011;4465;50.904;4.696;2022-07-23T07:34:02;24.15;;;15.20;;
8857;SDS011;4465;50.904;4.696;2022-07-23T07:36:28;22.30;;;14.68;;
8857;SDS011;4465;50.904;4.696;2022-07-23T07:38:55;21.90;;;14.65;;
8857;SDS011;4465;50.904;4.696;2022-07-23T07:41:23;23.42;;;15.20;;
8857;SDS011;4465;50.904;4.696;2022-07-23T07:43:51;22.08;;;14.05;;
8857;SDS011;4465;50.904;4.696;2022-07-23T07:46:17;21.60;;;13.63;;
8857;SDS011;4465;50.904;4.696;2022-07-23T07:48:46;18.70;;;12.80;;
8857;SDS011;4465;50.904;4.696;2022-07-23T07:51:12;19.88;;;12.68;;
8857;SDS011;4465;50.904;4.696;2022-07-23T07:53:38;18.35;;;12.25;;
8857;SDS011;4465;50.904;4.696;2022-07-23T07:56:04;20.75;;;12.25;;
8857;SDS011;4465;50.904;4.696;2022-07-23T07:58:31;17.98;;;12.48;;
8857;SDS011;4465;50.904;4.696;2022-07-23T08:00:57;21.38;;;11.77;;
8857;SDS011;4465;50.904;4.696;2022-07-23T08:03:23;17.55;;;12.00;;
8857;SDS011;4465;50.904;4.696;2022-07-23T08:05:48;19.25;;;11.43;;
8857;SDS011;4465;50.904;4.696;2022-07-23T08:08:14;15.27;;;11.10;;
8857;SDS011;4465;50.904;4.696;2022-07-23T08:10:41;18.88;;;11.48;;
8857;SDS011;4465;50.904;4.696;2022-07-23T08:13:07;17.33;;;10.80;;
8857;SDS011;4465;50.904;4.696;2022-07-23T08:15:37;14.48;;;10.35;;
8857;SDS011;4465;50.904;4.696;2022-07-23T08:18:04;13.90;;;10.43;;
8857;SDS011;4465;50.904;4.696;2022-07-23T08:20:30;17.00;;;9.85;;
8857;SDS011;4465;50.904;4.696;2022-07-23T08:22:59;13.88;;;8.60;;
8857;SDS011;4465;50.904;4.696;2022-07-23T08:25:30;16.45;;;9.48;;
8857;SDS011;4465;50.904;4.696;2022-07-23T08:28:03;14.43;;;8.88;;
8857;SDS011;4465;50.904;4.696;2022-07-23T08:30:31;14.43;;;8.73;;
8857;SDS011;4465;50.904;4.696;2022-07-23T08:35:29;19.40;;;9.85;;
8857;SDS011;4465;50.904;4.696;2022-07-23T08:37:58;12.93;;;8.43;;
8857;SDS011;4465;50.904;4.696;2022-07-23T08:40:26;16.35;;;9.15;;
8857;SDS011;4465;50.904;4.696;2022-07-23T08:42:53;16.30;;;9.40;;
8857;SDS011;4465;50.904;4.696;2022-07-23T08:45:22;14.00;;;8.93;;
8857;SDS011;4465;50.904;4.696;2022-07-23T08:47:55;13.98;;;8.68;;
8857;SDS011;4465;50.904;4.696;2022-07-23T08:50:24;12.90;;;8.10;;
8857;SDS011;4465;50.904;4.696;2022-07-23T08:52:51;16.38;;;8.73;;
8857;SDS011;4465;50.904;4.696;2022-07-23T08:55:20;14.18;;;8.55;;
8857;SDS011;4465;50.904;4.696;2022-07-23T08:57:48;13.18;;;7.65;;
8857;SDS011;4465;50.904;4.696;2022-07-23T09:00:16;15.73;;;8.23;;
8857;SDS011;4465;50.904;4.696;2022-07-23T09:02:45;13.30;;;7.78;;
8857;SDS011;4465;50.904;4.696;2022-07-23T09:05:12;14.38;;;8.38;;
8857;SDS011;4465;50.904;4.696;2022-07-23T09:10:47;12.40;;;7.65;;
8857;SDS011;4465;50.904;4.696;2022-07-23T09:16:07;13.63;;;7.72;;
8857;SDS011;4465;50.904;4.696;2022-07-23T09:18:45;14.57;;;7.80;;
8857;SDS011;4465;50.904;4.696;2022-07-23T09:21:23;11.63;;;6.72;;
8857;SDS011;4465;50.904;4.696;2022-07-23T09:26:37;9.55;;;5.70;;
8857;SDS011;4465;50.904;4.696;2022-07-23T09:31:41;12.50;;;6.00;;
8857;SDS011;4465;50.904;4.696;2022-07-23T09:34:15;11.82;;;7.50;;
8857;SDS011;4465;50.904;4.696;2022-07-23T09:36:49;12.15;;;6.53;;
8857;SDS011;4465;50.904;4.696;2022-07-23T09:39:30;10.05;;;6.00;;
8857;SDS011;4465;50.904;4.696;2022-07-23T09:42:32;9.57;;;5.70;;
8857;SDS011;4465;50.904;4.696;2022-07-23T09:44:52;8.63;;;5.32;;
8857;SDS011;4465;50.904;4.696;2022-07-23T09:47:23;14.02;;;6.65;;
8857;SDS011;4465;50.904;4.696;2022-07-23T09:52:30;16.98;;;6.78;;
8857;SDS011;4465;50.904;4.696;2022-07-23T09:54:58;8.40;;;5.50;;
8857;SDS011;4465;50.904;4.696;2022-07-23T09:57:26;11.77;;;5.45;;
8857;SDS011;4465;50.904;4.696;2022-07-23T09:59:53;9.88;;;5.28;;
8857;SDS011;4465;50.904;4.696;2022-07-23T10:02:25;9.30;;;5.13;;
8857;SDS011;4465;50.904;4.696;2022-07-23T10:04:54;8.90;;;5.18;;
8857;SDS011;4465;50.904;4.696;2022-07-23T10:07:25;7.82;;;4.57;;
8857;SDS011;4465;50.904;4.696;2022-07-23T10:09:52;7.00;;;4.93;;
8857;SDS011;4465;50.904;4.696;2022-07-23T10:12:19;8.90;;;4.60;;
8857;SDS011;4465;50.904;4.696;2022-07-23T10:14:51;13.65;;;5.68;;
8857;SDS011;4465;50.904;4.696;2022-07-23T10:17:18;9.30;;;4.88;;
8857;SDS011;4465;50.904;4.696;2022-07-23T10:19:44;9.55;;;5.20;;
8857;SDS011;4465;50.904;4.696;2022-07-23T10:35:53;9.68;;;4.18;;
8857;SDS011;4465;50.904;4.696;2022-07-23T10:38:30;6.65;;;4.18;;
8857;SDS011;4465;50.904;4.696;2022-07-23T10:41:08;8.38;;;3.67;;
8857;SDS011;4465;50.904;4.696;2022-07-23T10:43:34;6.95;;;4.80;;
8857;SDS011;4465;50.904;4.696;2022-07-23T10:49:30;4.68;;;3.28;;
8857;SDS011;4465;50.904;4.696;2022-07-23T10:57:47;6.82;;;4.00;;
8857;SDS011;4465;50.904;4.696;2022-07-23T11:00:16;6.45;;;3.72;;
8857;SDS011;4465;50.904;4.696;2022-07-23T11:02:47;9.57;;;4.95;;
8857;SDS011;4465;50.904;4.696;2022-07-23T11:05:15;7.47;;;3.67;;
8857;SDS011;4465;50.904;4.696;2022-07-23T11:26:49;4.85;;;2.60;;
8857;SDS011;4465;50.904;4.696;2022-07-23T11:32:02;5.07;;;2.60;;
8857;SDS011;4465;50.904;4.696;2022-07-23T11:34:48;3.60;;;2.13;;
8857;SDS011;4465;50.904;4.696;2022-07-23T11:37:28;8.52;;;2.55;;
8857;SDS011;4465;50.904;4.696;2022-07-23T11:39:57;4.57;;;2.58;;
8857;SDS011;4465;50.904;4.696;2022-07-23T11:42:24;4.75;;;2.30;;
8857;SDS011;4465;50.904;4.696;2022-07-23T11:44:52;6.75;;;2.80;;
8857;SDS011;4465;50.904;4.696;2022-07-23T11:47:22;5.10;;;2.75;;
8857;SDS011;4465;50.904;4.696;2022-07-23T11:49:52;7.88;;;3.03;;
8857;SDS011;4465;50.904;4.696;2022-07-23T11:54:48;5.90;;;2.63;;
8857;SDS011;4465;50.904;4.696;2022-07-23T11:57:23;5.50;;;2.95;;
8857;SDS011;4465;50.904;4.696;2022-07-23T12:00:20;4.40;;;2.75;;
8857;SDS011;4465;50.904;4.696;2022-07-23T12:02:47;7.88;;;2.60;;
8857;SDS011;4465;50.904;4.696;2022-07-23T12:05:16;4.60;;;2.28;;
8857;SDS011;4465;50.904;4.696;2022-07-23T12:07:44;3.55;;;2.78;;
8857;SDS011;4465;50.904;4.696;2022-07-23T12:10:25;5.20;;;2.72;;
8857;SDS011;4465;50.904;4.696;2022-07-23T12:13:06;3.65;;;2.40;;
8857;SDS011;4465;50.904;4.696;2022-07-23T12:15:39;3.90;;;2.63;;
8857;SDS011;4465;50.904;4.696;2022-07-23T12:18:10;3.97;;;2.22;;
8857;SDS011;4465;50.904;4.696;2022-07-23T12:20:41;3.40;;;2.22;;
8857;SDS011;4465;50.904;4.696;2022-07-23T12:23:10;4.65;;;2.20;;
8857;SDS011;4465;50.904;4.696;2022-07-23T12:25:41;4.38;;;2.33;;
8857;SDS011;4465;50.904;4.696;2022-07-23T12:28:09;4.57;;;2.10;;
8857;SDS011;4465;50.904;4.696;2022-07-23T12:30:40;4.35;;;2.10;;
8857;SDS011;4465;50.904;4.696;2022-07-23T12:33:09;4.00;;;2.17;;
8857;SDS011;4465;50.904;4.696;2022-07-23T12:35:41;4.32;;;2.00;;
8857;SDS011;4465;50.904;4.696;2022-07-23T12:38:19;3.97;;;2.17;;
8857;SDS011;4465;50.904;4.696;2022-07-23T12:40:50;4.22;;;2.08;;
8857;SDS011;4465;50.904;4.696;2022-07-23T12:43:21;3.92;;;2.05;;
8857;SDS011;4465;50.904;4.696;2022-07-23T12:45:53;5.05;;;2.20;;
8857;SDS011;4465;50.904;4.696;2022-07-23T12:53:41;4.38;;;2.35;;
8857;SDS011;4465;50.904;4.696;2022-07-23T12:56:10;8.52;;;2.65;;
8857;SDS011;4465;50.904;4.696;2022-07-23T12:58:47;5.25;;;2.05;;
8857;SDS011;4465;50.904;4.696;2022-07-23T13:09:11;5.97;;;2.45;;
8857;SDS011;4465;50.904;4.696;2022-07-23T13:11:39;3.13;;;2.25;;
8857;SDS011;4465;50.904;4.696;2022-07-23T13:14:06;4.38;;;2.30;;
8857;SDS011;4465;50.904;4.696;2022-07-23T13:16:33;5.47;;;2.80;;
8857;SDS011;4465;50.904;4.696;2022-07-23T13:18:59;6.07;;;2.50;;
8857;SDS011;4465;50.904;4.696;2022-07-23T13:21:27;3.30;;;2.00;;
8857;SDS011;4465;50.904;4.696;2022-07-23T13:23:56;3.30;;;2.38;;
8857;SDS011;4465;50.904;4.696;2022-07-23T13:26:25;5.82;;;2.42;;
8857;SDS011;4465;50.904;4.696;2022-07-23T13:28:52;4.18;;;2.42;;
8857;SDS011;4465;50.904;4.696;2022-07-23T13:31:20;8.80;;;2.50;;
8857;SDS011;4465;50.904;4.696;2022-07-23T13:33:49;4.80;;;2.50;;
8857;SDS011;4465;50.904;4.696;2022-07-23T13:36:15;4.15;;;2.60;;
8857;SDS011;4465;50.904;4.696;2022-07-23T13:38:42;3.38;;;2.20;;
8857;SDS011;4465;50.904;4.696;2022-07-23T13:41:08;5.20;;;2.40;;
8857;SDS011;4465;50.904;4.696;2022-07-23T13:43:34;6.10;;;2.70;;
8857;SDS011;4465;50.904;4.696;2022-07-23T13:46:03;4.22;;;2.30;;
8857;SDS011;4465;50.904;4.696;2022-07-23T13:48:31;5.18;;;2.35;;
8857;SDS011;4465;50.904;4.696;2022-07-23T13:50:57;3.72;;;2.67;;
8857;SDS011;4465;50.904;4.696;2022-07-23T13:53:26;4.97;;;2.28;;
8857;SDS011;4465;50.904;4.696;2022-07-23T13:55:52;7.05;;;2.60;;
8857;SDS011;4465;50.904;4.696;2022-07-23T13:58:21;4.70;;;2.28;;
8857;SDS011;4465;50.904;4.696;2022-07-23T14:00:51;3.28;;;2.67;;
8857;SDS011;4465;50.904;4.696;2022-07-23T14:03:18;6.55;;;2.25;;
8857;SDS011;4465;50.904;4.696;2022-07-23T14:05:48;9.65;;;2.70;;
8857;SDS011;4465;50.904;4.696;2022-07-23T14:08:15;4.38;;;2.70;;
8857;SDS011;4465;50.904;4.696;2022-07-23T14:10:43;5.28;;;2.67;;
8857;SDS011;4465;50.904;4.696;2022-07-23T14:13:09;4.55;;;2.72;;
8857;SDS011;4465;50.904;4.696;2022-07-23T14:15:35;9.57;;;2.70;;
8857;SDS011;4465;50.904;4.696;2022-07-23T14:20:28;4.25;;;2.58;;
8857;SDS011;4465;50.904;4.696;2022-07-23T14:22:54;3.13;;;2.33;;
8857;SDS011;4465;50.904;4.696;2022-07-23T14:25:23;4.57;;;2.80;;
8857;SDS011;4465;50.904;4.696;2022-07-23T14:27:49;8.10;;;3.13;;
8857;SDS011;4465;50.904;4.696;2022-07-23T14:30:15;6.18;;;2.95;;
8857;SDS011;4465;50.904;4.696;2022-07-23T14:32:44;4.80;;;2.75;;
8857;SDS011;4465;50.904;4.696;2022-07-23T14:35:10;7.07;;;2.80;;
8857;SDS011;4465;50.904;4.696;2022-07-23T14:37:38;7.22;;;3.03;;
8857;SDS011;4465;50.904;4.696;2022-07-23T14:40:04;8.15;;;3.03;;
8857;SDS011;4465;50.904;4.696;2022-07-23T14:42:31;7.65;;;3.30;;
8857;SDS011;4465;50.904;4.696;2022-07-23T14:44:57;4.43;;;3.13;;
8857;SDS011;4465;50.904;4.696;2022-07-23T14:47:23;6.80;;;2.60;;
8857;SDS011;4465;50.904;4.696;2022-07-23T14:49:49;6.00;;;3.30;;
8857;SDS011;4465;50.904;4.696;2022-07-23T14:52:15;7.55;;;3.58;;
8857;SDS011;4465;50.904;4.696;2022-07-23T14:54:42;7.50;;;3.00;;
8857;SDS011;4465;50.904;4.696;2022-07-23T14:57:10;6.68;;;3.65;;
8857;SDS011;4465;50.904;4.696;2022-07-23T14:59:36;9.87;;;3.57;;
8857;SDS011;4465;50.904;4.696;2022-07-23T15:02:02;18.00;;;3.20;;
8857;SDS011;4465;50.904;4.696;2022-07-23T15:04:32;11.10;;;3.47;;
8857;SDS011;4465;50.904;4.696;2022-07-23T15:06:58;5.47;;;3.30;;
8857;SDS011;4465;50.904;4.696;2022-07-23T15:09:24;7.25;;;3.42;;
8857;SDS011;4465;50.904;4.696;2022-07-23T15:11:50;6.15;;;3.90;;
8857;SDS011;4465;50.904;4.696;2022-07-23T15:14:18;8.57;;;3.92;;
8857;SDS011;4465;50.904;4.696;2022-07-23T15:16:47;4.78;;;3.47;;
8857;SDS011;4465;50.904;4.696;2022-07-23T15:19:13;8.80;;;4.60;;
8857;SDS011;4465;50.904;4.696;2022-07-23T15:21:39;8.05;;;3.65;;
8857;SDS011;4465;50.904;4.696;2022-07-23T15:24:06;7.30;;;3.47;;
8857;SDS011;4465;50.904;4.696;2022-07-23T15:26:32;7.65;;;4.00;;
8857;SDS011;4465;50.904;4.696;2022-07-23T15:28:58;5.40;;;3.67;;
8857;SDS011;4465;50.904;4.696;2022-07-23T15:31:24;5.15;;;3.53;;
8857;SDS011;4465;50.904;4.696;2022-07-23T15:33:50;10.32;;;3.33;;
8857;SDS011;4465;50.904;4.696;2022-07-23T15:36:17;7.85;;;3.63;;
8857;SDS011;4465;50.904;4.696;2022-07-23T15:38:44;7.05;;;3.83;;
8857;SDS011;4465;50.904;4.696;2022-07-23T15:41:11;6.78;;;4.10;;
8857;SDS011;4465;50.904;4.696;2022-07-23T15:43:37;7.88;;;3.70;;
8857;SDS011;4465;50.904;4.696;2022-07-23T15:46:03;7.82;;;4.18;;
8857;SDS011;4465;50.904;4.696;2022-07-23T15:50:56;5.32;;;3.30;;
8857;SDS011;4465;50.904;4.696;2022-07-23T15:53:23;7.32;;;3.67;;
8857;SDS011;4465;50.904;4.696;2022-07-23T15:55:49;6.30;;;3.53;;
8857;SDS011;4465;50.904;4.696;2022-07-23T15:58:17;9.18;;;3.90;;
8857;SDS011;4465;50.904;4.696;2022-07-23T16:00:43;5.90;;;3.60;;
8857;SDS011;4465;50.904;4.696;2022-07-23T16:03:09;7.75;;;4.15;;
8857;SDS011;4465;50.904;4.696;2022-07-23T16:05:36;7.17;;;4.10;;
8857;SDS011;4465;50.904;4.696;2022-07-23T16:08:06;6.38;;;4.30;;
8857;SDS011;4465;50.904;4.696;2022-07-23T16:10:32;8.07;;;3.83;;
8857;SDS011;4465;50.904;4.696;2022-07-23T16:12:58;8.13;;;3.92;;
8857;SDS011;4465;50.904;4.696;2022-07-23T16:15:24;7.38;;;4.15;;
8857;SDS011;4465;50.904;4.696;2022-07-23T16:17:51;7.53;;;4.50;;
8857;SDS011;4465;50.904;4.696;2022-07-23T16:22:46;6.38;;;4.18;;
8857;SDS011;4465;50.904;4.696;2022-07-23T16:25:15;9.65;;;3.70;;
8857;SDS011;4465;50.904;4.696;2022-07-23T16:27:41;6.60;;;4.10;;
8857;SDS011;4465;50.904;4.696;2022-07-23T16:30:09;8.70;;;4.13;;
8857;SDS011;4465;50.904;4.696;2022-07-23T16:32:39;7.30;;;4.43;;
8857;SDS011;4465;50.904;4.696;2022-07-23T16:35:07;7.60;;;4.53;;
8857;SDS011;4465;50.904;4.696;2022-07-23T16:37:34;7.32;;;4.10;;